sensor_id;sensor_type;location;lat;lon;timestamp;P1;durP1;ratioP1;P2;durP2;ratioP2
23310;SDS011;11828;51.508;18.118;2024-03-02T00:00:18;46.03;;;25.05;;
23310;SDS011;11828;51.508;18.118;2024-03-02T00:03:07;39.33;;;22.73;;
23310;SDS011;11828;51.508;18.118;2024-03-02T00:05:35;46.85;;;24.13;;
23310;SDS011;11828;51.508;18.118;2024-03-02T00:08:02;47.00;;;24.52;;
23310;SDS011;11828;51.508;18.118;2024-03-02T00:10:38;51.05;;;23.73;;
23310;SDS011;11828;51.508;18.118;2024-03-02T00:13:08;39.75;;;21.40;;
23310;SDS011;11828;51.508;18.118;2024-03-02T00:18:14;44.80;;;22.70;;
23310;SDS011;11828;51.508;18.118;2024-03-02T00:21:11;44.78;;;23.08;;
23310;SDS011;11828;51.508;18.118;2024-03-02T00:23:41;41.20;;;22.20;;
23310;SDS011;11828;51.508;18.118;2024-03-02T00:26:07;46.15;;;22.58;;
23310;SDS011;11828;51.508;18.118;2024-03-02T00:28:38;45.95;;;23.88;;
23310;SDS011;11828;51.508;18.118;2024-03-02T00:33:48;55.25;;;26.42;;
23310;SDS011;11828;51.508;18.118;2024-03-02T00:36:26;50.08;;;26.02;;
23310;SDS011;11828;51.508;18.118;2024-03-02T00:38:53;47.83;;;23.95;;
23310;SDS011;11828;51.508;18.118;2024-03-02T00:41:30;45.70;;;23.15;;
23310;SDS011;11828;51.508;18.118;2024-03-02T00:43:58;44.95;;;23.25;;
23310;SDS011;11828;51.508;18.118;2024-03-02T00:46:27;41.80;;;22.77;;
23310;SDS011;11828;51.508;18.118;2024-03-02T00:48:59;46.15;;;22.95;;
23310;SDS011;11828;51.508;18.118;2024-03-02T00:51:28;45.60;;;22.88;;
23310;SDS011;11828;51.508;18.118;2024-03-02T00:54:02;45.47;;;23.30;;
23310;SDS011;11828;51.508;18.118;2024-03-02T00:56:31;46.58;;;23.20;;
23310;SDS011;11828;51.508;18.118;2024-03-02T00:59:00;47.78;;;23.88;;
23310;SDS011;11828;51.508;18.118;2024-03-02T01:01:26;48.53;;;24.42;;
23310;SDS011;11828;51.508;18.118;2024-03-02T01:03:53;45.72;;;24.92;;
23310;SDS011;11828;51.508;18.118;2024-03-02T01:06:19;42.65;;;22.45;;
23310;SDS011;11828;51.508;18.118;2024-03-02T01:08:47;46.15;;;23.38;;
23310;SDS011;11828;51.508;18.118;2024-03-02T01:11:16;45.65;;;23.45;;
23310;SDS011;11828;51.508;18.118;2024-03-02T01:13:44;45.20;;;25.23;;
23310;SDS011;11828;51.508;18.118;2024-03-02T01:16:11;44.38;;;22.98;;
23310;SDS011;11828;51.508;18.118;2024-03-02T01:18:38;44.78;;;23.38;;
23310;SDS011;11828;51.508;18.118;2024-03-02T01:21:05;44.65;;;23.88;;
23310;SDS011;11828;51.508;18.118;2024-03-02T01:23:32;42.42;;;23.25;;
23310;SDS011;11828;51.508;18.118;2024-03-02T01:25:58;46.28;;;24.73;;
23310;SDS011;11828;51.508;18.118;2024-03-02T01:28:25;50.78;;;24.95;;
23310;SDS011;11828;51.508;18.118;2024-03-02T01:30:51;45.10;;;21.98;;
23310;SDS011;11828;51.508;18.118;2024-03-02T01:33:19;46.97;;;21.83;;
23310;SDS011;11828;51.508;18.118;2024-03-02T01:35:46;47.80;;;21.80;;
23310;SDS011;11828;51.508;18.118;2024-03-02T01:38:13;40.30;;;21.30;;
23310;SDS011;11828;51.508;18.118;2024-03-02T01:40:39;45.67;;;24.92;;
23310;SDS011;11828;51.508;18.118;2024-03-02T01:43:06;41.90;;;23.02;;
23310;SDS011;11828;51.508;18.118;2024-03-02T01:45:33;42.97;;;22.42;;
23310;SDS011;11828;51.508;18.118;2024-03-02T01:48:01;43.20;;;22.73;;
23310;SDS011;11828;51.508;18.118;2024-03-02T01:50:28;42.40;;;22.25;;
23310;SDS011;11828;51.508;18.118;2024-03-02T01:52:58;43.42;;;22.38;;
23310;SDS011;11828;51.508;18.118;2024-03-02T01:55:25;47.03;;;24.05;;
23310;SDS011;11828;51.508;18.118;2024-03-02T01:57:53;42.40;;;21.98;;
23310;SDS011;11828;51.508;18.118;2024-03-02T02:00:20;42.40;;;23.13;;
23310;SDS011;11828;51.508;18.118;2024-03-02T02:02:47;42.30;;;22.60;;
23310;SDS011;11828;51.508;18.118;2024-03-02T02:05:14;39.35;;;21.40;;
23310;SDS011;11828;51.508;18.118;2024-03-02T02:07:41;44.53;;;22.52;;
23310;SDS011;11828;51.508;18.118;2024-03-02T02:10:08;42.97;;;23.13;;
23310;SDS011;11828;51.508;18.118;2024-03-02T02:12:35;41.65;;;22.65;;
23310;SDS011;11828;51.508;18.118;2024-03-02T02:15:02;40.22;;;21.85;;
23310;SDS011;11828;51.508;18.118;2024-03-02T02:17:49;45.20;;;24.38;;
23310;SDS011;11828;51.508;18.118;2024-03-02T02:20:14;41.58;;;22.77;;
23310;SDS011;11828;51.508;18.118;2024-03-02T02:25:49;43.50;;;23.00;;
23310;SDS011;11828;51.508;18.118;2024-03-02T02:28:16;44.17;;;22.40;;
23310;SDS011;11828;51.508;18.118;2024-03-02T02:30:43;40.78;;;22.33;;
23310;SDS011;11828;51.508;18.118;2024-03-02T02:33:09;45.15;;;22.90;;
23310;SDS011;11828;51.508;18.118;2024-03-02T02:35:36;44.92;;;25.05;;
23310;SDS011;11828;51.508;18.118;2024-03-02T02:38:03;47.10;;;24.48;;
23310;SDS011;11828;51.508;18.118;2024-03-02T02:40:29;40.00;;;22.70;;
23310;SDS011;11828;51.508;18.118;2024-03-02T02:42:56;44.10;;;23.48;;
23310;SDS011;11828;51.508;18.118;2024-03-02T02:45:26;40.28;;;22.33;;
23310;SDS011;11828;51.508;18.118;2024-03-02T02:47:53;39.08;;;21.58;;
23310;SDS011;11828;51.508;18.118;2024-03-02T02:50:19;38.75;;;20.85;;
23310;SDS011;11828;51.508;18.118;2024-03-02T02:52:46;40.28;;;21.73;;
23310;SDS011;11828;51.508;18.118;2024-03-02T02:55:13;39.85;;;21.50;;
23310;SDS011;11828;51.508;18.118;2024-03-02T02:57:41;39.70;;;21.33;;
23310;SDS011;11828;51.508;18.118;2024-03-02T03:00:10;37.40;;;21.25;;
23310;SDS011;11828;51.508;18.118;2024-03-02T03:02:41;47.30;;;21.90;;
23310;SDS011;11828;51.508;18.118;2024-03-02T03:05:11;40.47;;;22.02;;
23310;SDS011;11828;51.508;18.118;2024-03-02T03:07:40;36.33;;;20.75;;
23310;SDS011;11828;51.508;18.118;2024-03-02T03:10:07;36.00;;;21.05;;
23310;SDS011;11828;51.508;18.118;2024-03-02T03:12:35;49.42;;;23.42;;
23310;SDS011;11828;51.508;18.118;2024-03-02T03:15:02;43.40;;;21.08;;
23310;SDS011;11828;51.508;18.118;2024-03-02T03:17:30;36.33;;;20.50;;
23310;SDS011;11828;51.508;18.118;2024-03-02T03:19:56;40.97;;;21.80;;
23310;SDS011;11828;51.508;18.118;2024-03-02T03:22:23;35.95;;;19.80;;
23310;SDS011;11828;51.508;18.118;2024-03-02T03:24:50;35.53;;;21.05;;
23310;SDS011;11828;51.508;18.118;2024-03-02T03:27:17;34.95;;;20.23;;
23310;SDS011;11828;51.508;18.118;2024-03-02T03:29:44;40.10;;;21.98;;
23310;SDS011;11828;51.508;18.118;2024-03-02T03:32:12;38.80;;;20.95;;
23310;SDS011;11828;51.508;18.118;2024-03-02T03:34:38;38.58;;;21.83;;
23310;SDS011;11828;51.508;18.118;2024-03-02T03:37:05;41.42;;;22.75;;
23310;SDS011;11828;51.508;18.118;2024-03-02T03:39:30;41.70;;;22.55;;
23310;SDS011;11828;51.508;18.118;2024-03-02T03:41:57;43.30;;;23.70;;
23310;SDS011;11828;51.508;18.118;2024-03-02T03:44:23;40.97;;;23.42;;
23310;SDS011;11828;51.508;18.118;2024-03-02T03:46:51;38.88;;;22.17;;
23310;SDS011;11828;51.508;18.118;2024-03-02T03:49:17;41.75;;;23.08;;
23310;SDS011;11828;51.508;18.118;2024-03-02T03:51:44;48.72;;;23.48;;
23310;SDS011;11828;51.508;18.118;2024-03-02T03:54:10;56.40;;;23.95;;
23310;SDS011;11828;51.508;18.118;2024-03-02T03:56:37;40.80;;;21.05;;
23310;SDS011;11828;51.508;18.118;2024-03-02T03:59:04;40.97;;;19.77;;
23310;SDS011;11828;51.508;18.118;2024-03-02T04:01:31;39.72;;;22.02;;
23310;SDS011;11828;51.508;18.118;2024-03-02T04:03:59;39.03;;;20.67;;
23310;SDS011;11828;51.508;18.118;2024-03-02T04:06:27;36.80;;;20.63;;
23310;SDS011;11828;51.508;18.118;2024-03-02T04:08:54;37.90;;;20.85;;
23310;SDS011;11828;51.508;18.118;2024-03-02T04:11:20;36.25;;;20.10;;
23310;SDS011;11828;51.508;18.118;2024-03-02T04:13:47;34.05;;;20.10;;
23310;SDS011;11828;51.508;18.118;2024-03-02T04:16:13;39.50;;;20.92;;
23310;SDS011;11828;51.508;18.118;2024-03-02T04:18:40;34.45;;;19.42;;
23310;SDS011;11828;51.508;18.118;2024-03-02T04:21:07;36.55;;;19.95;;
23310;SDS011;11828;51.508;18.118;2024-03-02T04:23:34;36.38;;;21.00;;
23310;SDS011;11828;51.508;18.118;2024-03-02T04:26:00;42.63;;;20.75;;
23310;SDS011;11828;51.508;18.118;2024-03-02T04:28:27;33.72;;;19.17;;
23310;SDS011;11828;51.508;18.118;2024-03-02T04:30:54;35.97;;;19.42;;
23310;SDS011;11828;51.508;18.118;2024-03-02T04:33:20;35.53;;;20.38;;
23310;SDS011;11828;51.508;18.118;2024-03-02T04:35:48;37.65;;;19.60;;
23310;SDS011;11828;51.508;18.118;2024-03-02T04:38:14;35.67;;;20.33;;
23310;SDS011;11828;51.508;18.118;2024-03-02T04:40:40;35.17;;;20.42;;
23310;SDS011;11828;51.508;18.118;2024-03-02T04:43:07;34.03;;;19.52;;
23310;SDS011;11828;51.508;18.118;2024-03-02T04:45:36;33.72;;;19.67;;
23310;SDS011;11828;51.508;18.118;2024-03-02T04:48:03;33.83;;;19.17;;
23310;SDS011;11828;51.508;18.118;2024-03-02T04:50:32;34.20;;;20.52;;
23310;SDS011;11828;51.508;18.118;2024-03-02T04:52:59;37.22;;;21.05;;
23310;SDS011;11828;51.508;18.118;2024-03-02T04:55:26;36.30;;;20.35;;
23310;SDS011;11828;51.508;18.118;2024-03-02T04:58:04;41.88;;;21.02;;
23310;SDS011;11828;51.508;18.118;2024-03-02T05:00:32;40.78;;;19.80;;
23310;SDS011;11828;51.508;18.118;2024-03-02T05:02:58;38.05;;;19.55;;
23310;SDS011;11828;51.508;18.118;2024-03-02T05:05:26;37.53;;;20.60;;
23310;SDS011;11828;51.508;18.118;2024-03-02T05:07:52;40.42;;;20.48;;
23310;SDS011;11828;51.508;18.118;2024-03-02T05:10:20;40.25;;;21.83;;
23310;SDS011;11828;51.508;18.118;2024-03-02T05:12:47;36.60;;;21.52;;
23310;SDS011;11828;51.508;18.118;2024-03-02T05:15:22;36.60;;;19.90;;
23310;SDS011;11828;51.508;18.118;2024-03-02T05:17:49;32.85;;;20.52;;
23310;SDS011;11828;51.508;18.118;2024-03-02T05:20:15;38.28;;;21.10;;
23310;SDS011;11828;51.508;18.118;2024-03-02T05:22:42;44.75;;;21.73;;
23310;SDS011;11828;51.508;18.118;2024-03-02T05:25:09;37.50;;;21.08;;
23310;SDS011;11828;51.508;18.118;2024-03-02T05:27:35;35.47;;;20.45;;
23310;SDS011;11828;51.508;18.118;2024-03-02T05:30:02;37.03;;;20.40;;
23310;SDS011;11828;51.508;18.118;2024-03-02T05:32:31;36.85;;;19.83;;
23310;SDS011;11828;51.508;18.118;2024-03-02T05:34:59;35.03;;;19.65;;
23310;SDS011;11828;51.508;18.118;2024-03-02T05:37:25;39.83;;;20.65;;
23310;SDS011;11828;51.508;18.118;2024-03-02T05:39:52;38.00;;;21.67;;
23310;SDS011;11828;51.508;18.118;2024-03-02T05:42:19;41.03;;;20.60;;
23310;SDS011;11828;51.508;18.118;2024-03-02T05:44:46;41.90;;;21.48;;
23310;SDS011;11828;51.508;18.118;2024-03-02T05:47:12;39.30;;;21.23;;
23310;SDS011;11828;51.508;18.118;2024-03-02T05:49:39;37.40;;;20.77;;
23310;SDS011;11828;51.508;18.118;2024-03-02T05:52:05;35.83;;;20.75;;
23310;SDS011;11828;51.508;18.118;2024-03-02T05:54:32;36.15;;;19.60;;
23310;SDS011;11828;51.508;18.118;2024-03-02T05:56:58;36.50;;;19.50;;
23310;SDS011;11828;51.508;18.118;2024-03-02T05:59:42;45.25;;;21.98;;
23310;SDS011;11828;51.508;18.118;2024-03-02T06:02:09;37.83;;;21.02;;
23310;SDS011;11828;51.508;18.118;2024-03-02T06:04:35;36.00;;;20.20;;
23310;SDS011;11828;51.508;18.118;2024-03-02T06:07:02;39.38;;;21.88;;
23310;SDS011;11828;51.508;18.118;2024-03-02T06:09:29;37.28;;;21.08;;
23310;SDS011;11828;51.508;18.118;2024-03-02T06:11:56;33.83;;;20.15;;
23310;SDS011;11828;51.508;18.118;2024-03-02T06:14:23;35.75;;;20.13;;
23310;SDS011;11828;51.508;18.118;2024-03-02T06:16:49;36.50;;;21.17;;
23310;SDS011;11828;51.508;18.118;2024-03-02T06:19:16;54.60;;;32.85;;
23310;SDS011;11828;51.508;18.118;2024-03-02T06:21:43;72.60;;;44.38;;
23310;SDS011;11828;51.508;18.118;2024-03-02T06:24:10;73.10;;;43.55;;
23310;SDS011;11828;51.508;18.118;2024-03-02T06:26:36;58.35;;;34.05;;
23310;SDS011;11828;51.508;18.118;2024-03-02T06:29:03;59.65;;;30.17;;
23310;SDS011;11828;51.508;18.118;2024-03-02T06:31:29;47.85;;;27.35;;
23310;SDS011;11828;51.508;18.118;2024-03-02T06:33:56;55.10;;;28.35;;
23310;SDS011;11828;51.508;18.118;2024-03-02T06:36:23;115.57;;;50.78;;
23310;SDS011;11828;51.508;18.118;2024-03-02T06:38:50;84.25;;;36.88;;
23310;SDS011;11828;51.508;18.118;2024-03-02T06:41:17;59.22;;;29.55;;
23310;SDS011;11828;51.508;18.118;2024-03-02T06:43:43;47.55;;;26.00;;
23310;SDS011;11828;51.508;18.118;2024-03-02T06:46:10;38.88;;;22.08;;
23310;SDS011;11828;51.508;18.118;2024-03-02T06:48:40;38.60;;;20.98;;
23310;SDS011;11828;51.508;18.118;2024-03-02T06:51:07;38.55;;;21.25;;
23310;SDS011;11828;51.508;18.118;2024-03-02T06:53:33;39.22;;;22.08;;
23310;SDS011;11828;51.508;18.118;2024-03-02T06:56:00;35.30;;;21.50;;
23310;SDS011;11828;51.508;18.118;2024-03-02T06:58:27;47.60;;;25.42;;
23310;SDS011;11828;51.508;18.118;2024-03-02T07:00:53;44.08;;;22.80;;
23310;SDS011;11828;51.508;18.118;2024-03-02T07:03:20;37.38;;;21.05;;
23310;SDS011;11828;51.508;18.118;2024-03-02T07:05:47;43.83;;;21.73;;
23310;SDS011;11828;51.508;18.118;2024-03-02T07:08:13;39.05;;;22.00;;
23310;SDS011;11828;51.508;18.118;2024-03-02T07:10:40;41.30;;;23.08;;
23310;SDS011;11828;51.508;18.118;2024-03-02T07:13:08;38.25;;;21.60;;
23310;SDS011;11828;51.508;18.118;2024-03-02T07:15:34;55.33;;;24.23;;
23310;SDS011;11828;51.508;18.118;2024-03-02T07:18:35;43.47;;;22.92;;
23310;SDS011;11828;51.508;18.118;2024-03-02T07:21:06;38.20;;;22.35;;
23310;SDS011;11828;51.508;18.118;2024-03-02T07:23:33;42.55;;;22.73;;
23310;SDS011;11828;51.508;18.118;2024-03-02T07:26:00;49.97;;;28.33;;
23310;SDS011;11828;51.508;18.118;2024-03-02T07:28:27;59.50;;;29.67;;
23310;SDS011;11828;51.508;18.118;2024-03-02T07:30:57;53.10;;;27.10;;
23310;SDS011;11828;51.508;18.118;2024-03-02T07:33:27;53.90;;;25.33;;
23310;SDS011;11828;51.508;18.118;2024-03-02T07:35:54;44.78;;;24.00;;
23310;SDS011;11828;51.508;18.118;2024-03-02T07:38:21;42.50;;;23.33;;
23310;SDS011;11828;51.508;18.118;2024-03-02T07:40:51;42.58;;;23.75;;
23310;SDS011;11828;51.508;18.118;2024-03-02T07:43:18;40.60;;;23.67;;
23310;SDS011;11828;51.508;18.118;2024-03-02T07:45:46;41.97;;;23.23;;
23310;SDS011;11828;51.508;18.118;2024-03-02T07:48:13;42.17;;;24.00;;
23310;SDS011;11828;51.508;18.118;2024-03-02T07:50:41;45.40;;;25.10;;
23310;SDS011;11828;51.508;18.118;2024-03-02T07:53:08;38.92;;;23.48;;
23310;SDS011;11828;51.508;18.118;2024-03-02T07:55:35;44.22;;;24.65;;
23310;SDS011;11828;51.508;18.118;2024-03-02T07:58:01;46.53;;;26.13;;
23310;SDS011;11828;51.508;18.118;2024-03-02T08:00:28;44.13;;;24.48;;
23310;SDS011;11828;51.508;18.118;2024-03-02T08:02:54;50.47;;;24.75;;
23310;SDS011;11828;51.508;18.118;2024-03-02T08:05:22;41.22;;;23.60;;
23310;SDS011;11828;51.508;18.118;2024-03-02T08:07:48;39.42;;;22.88;;
23310;SDS011;11828;51.508;18.118;2024-03-02T08:10:18;42.38;;;22.50;;
23310;SDS011;11828;51.508;18.118;2024-03-02T08:12:45;37.60;;;21.58;;
23310;SDS011;11828;51.508;18.118;2024-03-02T08:15:12;33.83;;;20.92;;
23310;SDS011;11828;51.508;18.118;2024-03-02T08:17:39;47.20;;;23.23;;
23310;SDS011;11828;51.508;18.118;2024-03-02T08:20:11;40.97;;;22.80;;
23310;SDS011;11828;51.508;18.118;2024-03-02T08:22:38;37.72;;;22.40;;
23310;SDS011;11828;51.508;18.118;2024-03-02T08:25:06;41.63;;;23.33;;
23310;SDS011;11828;51.508;18.118;2024-03-02T08:27:33;38.50;;;23.05;;
23310;SDS011;11828;51.508;18.118;2024-03-02T08:30:00;35.33;;;22.05;;
23310;SDS011;11828;51.508;18.118;2024-03-02T08:32:28;35.90;;;20.95;;
23310;SDS011;11828;51.508;18.118;2024-03-02T08:34:56;40.03;;;22.48;;
23310;SDS011;11828;51.508;18.118;2024-03-02T08:37:22;38.15;;;22.70;;
23310;SDS011;11828;51.508;18.118;2024-03-02T08:39:49;38.45;;;23.42;;
23310;SDS011;11828;51.508;18.118;2024-03-02T08:42:15;39.33;;;23.77;;
23310;SDS011;11828;51.508;18.118;2024-03-02T08:44:43;39.33;;;23.60;;
23310;SDS011;11828;51.508;18.118;2024-03-02T08:47:09;34.20;;;21.85;;
23310;SDS011;11828;51.508;18.118;2024-03-02T08:49:36;34.63;;;22.00;;
23310;SDS011;11828;51.508;18.118;2024-03-02T08:52:02;36.35;;;22.77;;
23310;SDS011;11828;51.508;18.118;2024-03-02T08:54:30;41.28;;;24.00;;
23310;SDS011;11828;51.508;18.118;2024-03-02T08:56:57;36.25;;;23.08;;
23310;SDS011;11828;51.508;18.118;2024-03-02T08:59:24;39.28;;;23.30;;
23310;SDS011;11828;51.508;18.118;2024-03-02T09:01:53;40.92;;;24.33;;
23310;SDS011;11828;51.508;18.118;2024-03-02T09:04:19;39.55;;;25.10;;
23310;SDS011;11828;51.508;18.118;2024-03-02T09:06:46;35.95;;;23.98;;
23310;SDS011;11828;51.508;18.118;2024-03-02T09:09:12;30.55;;;21.55;;
23310;SDS011;11828;51.508;18.118;2024-03-02T09:11:39;28.90;;;21.33;;
23310;SDS011;11828;51.508;18.118;2024-03-02T09:14:05;28.00;;;20.35;;
23310;SDS011;11828;51.508;18.118;2024-03-02T09:16:32;31.35;;;20.83;;
23310;SDS011;11828;51.508;18.118;2024-03-02T09:18:58;33.38;;;23.92;;
23310;SDS011;11828;51.508;18.118;2024-03-02T09:21:26;29.73;;;20.65;;
23310;SDS011;11828;51.508;18.118;2024-03-02T09:23:52;28.42;;;21.02;;
23310;SDS011;11828;51.508;18.118;2024-03-02T09:26:19;26.08;;;18.20;;
23310;SDS011;11828;51.508;18.118;2024-03-02T09:28:46;28.83;;;20.10;;
23310;SDS011;11828;51.508;18.118;2024-03-02T09:31:12;29.08;;;21.27;;
23310;SDS011;11828;51.508;18.118;2024-03-02T09:33:40;29.63;;;21.98;;
23310;SDS011;11828;51.508;18.118;2024-03-02T09:36:25;27.70;;;19.58;;
23310;SDS011;11828;51.508;18.118;2024-03-02T09:38:52;30.80;;;21.10;;
23310;SDS011;11828;51.508;18.118;2024-03-02T09:41:18;29.30;;;19.17;;
23310;SDS011;11828;51.508;18.118;2024-03-02T09:43:45;29.02;;;19.50;;
23310;SDS011;11828;51.508;18.118;2024-03-02T09:46:18;28.70;;;19.13;;
23310;SDS011;11828;51.508;18.118;2024-03-02T09:48:45;28.30;;;19.50;;
23310;SDS011;11828;51.508;18.118;2024-03-02T09:51:12;26.60;;;18.02;;
23310;SDS011;11828;51.508;18.118;2024-03-02T09:53:40;27.85;;;17.63;;
23310;SDS011;11828;51.508;18.118;2024-03-02T09:56:06;29.63;;;18.83;;
23310;SDS011;11828;51.508;18.118;2024-03-02T09:58:33;27.80;;;19.73;;
23310;SDS011;11828;51.508;18.118;2024-03-02T10:00:59;28.67;;;18.80;;
23310;SDS011;11828;51.508;18.118;2024-03-02T10:03:26;25.70;;;18.10;;
23310;SDS011;11828;51.508;18.118;2024-03-02T10:05:55;25.73;;;17.38;;
23310;SDS011;11828;51.508;18.118;2024-03-02T10:08:22;26.65;;;17.38;;
23310;SDS011;11828;51.508;18.118;2024-03-02T10:10:50;26.08;;;18.85;;
23310;SDS011;11828;51.508;18.118;2024-03-02T10:13:17;29.75;;;20.25;;
23310;SDS011;11828;51.508;18.118;2024-03-02T10:15:43;35.20;;;23.08;;
23310;SDS011;11828;51.508;18.118;2024-03-02T10:18:10;34.20;;;21.67;;
23310;SDS011;11828;51.508;18.118;2024-03-02T10:20:39;32.25;;;21.05;;
23310;SDS011;11828;51.508;18.118;2024-03-02T10:23:16;28.00;;;19.98;;
23310;SDS011;11828;51.508;18.118;2024-03-02T10:25:43;24.60;;;18.35;;
23310;SDS011;11828;51.508;18.118;2024-03-02T10:28:10;24.45;;;18.33;;
23310;SDS011;11828;51.508;18.118;2024-03-02T10:30:37;27.52;;;19.20;;
23310;SDS011;11828;51.508;18.118;2024-03-02T10:33:04;29.40;;;19.90;;
23310;SDS011;11828;51.508;18.118;2024-03-02T10:35:31;26.67;;;17.95;;
23310;SDS011;11828;51.508;18.118;2024-03-02T10:38:03;28.27;;;18.48;;
23310;SDS011;11828;51.508;18.118;2024-03-02T10:40:31;29.20;;;20.20;;
23310;SDS011;11828;51.508;18.118;2024-03-02T10:42:58;29.70;;;19.23;;
23310;SDS011;11828;51.508;18.118;2024-03-02T10:45:26;33.03;;;22.10;;
23310;SDS011;11828;51.508;18.118;2024-03-02T10:47:53;36.70;;;24.52;;
23310;SDS011;11828;51.508;18.118;2024-03-02T10:50:18;34.58;;;20.80;;
23310;SDS011;11828;51.508;18.118;2024-03-02T10:52:46;29.35;;;18.75;;
23310;SDS011;11828;51.508;18.118;2024-03-02T10:55:13;30.33;;;20.00;;
23310;SDS011;11828;51.508;18.118;2024-03-02T10:57:45;33.30;;;19.45;;
23310;SDS011;11828;51.508;18.118;2024-03-02T11:00:21;95.88;;;40.67;;
23310;SDS011;11828;51.508;18.118;2024-03-02T11:03:13;101.35;;;43.78;;
23310;SDS011;11828;51.508;18.118;2024-03-02T11:05:42;81.38;;;35.10;;
23310;SDS011;11828;51.508;18.118;2024-03-02T11:08:13;73.97;;;32.58;;
23310;SDS011;11828;51.508;18.118;2024-03-02T11:10:54;48.90;;;22.67;;
23310;SDS011;11828;51.508;18.118;2024-03-02T11:13:42;34.25;;;19.73;;
23310;SDS011;11828;51.508;18.118;2024-03-02T11:16:18;32.33;;;17.98;;
23310;SDS011;11828;51.508;18.118;2024-03-02T11:19:03;35.35;;;18.58;;
23310;SDS011;11828;51.508;18.118;2024-03-02T11:21:53;28.83;;;17.02;;
23310;SDS011;11828;51.508;18.118;2024-03-02T11:26:51;34.45;;;19.35;;
23310;SDS011;11828;51.508;18.118;2024-03-02T11:34:42;30.67;;;17.10;;
23310;SDS011;11828;51.508;18.118;2024-03-02T11:37:15;33.63;;;19.23;;
23310;SDS011;11828;51.508;18.118;2024-03-02T11:39:50;81.07;;;42.95;;
23310;SDS011;11828;51.508;18.118;2024-03-02T11:42:17;31.73;;;19.40;;
23310;SDS011;11828;51.508;18.118;2024-03-02T11:44:47;29.85;;;18.27;;
23310;SDS011;11828;51.508;18.118;2024-03-02T11:47:15;28.83;;;17.20;;
23310;SDS011;11828;51.508;18.118;2024-03-02T11:49:50;32.33;;;17.00;;
23310;SDS011;11828;51.508;18.118;2024-03-02T11:52:18;22.83;;;15.70;;
23310;SDS011;11828;51.508;18.118;2024-03-02T11:54:45;29.10;;;17.05;;
23310;SDS011;11828;51.508;18.118;2024-03-02T11:57:15;25.85;;;16.65;;
23310;SDS011;11828;51.508;18.118;2024-03-02T11:59:43;28.83;;;18.73;;
23310;SDS011;11828;51.508;18.118;2024-03-02T12:02:19;37.88;;;24.88;;
23310;SDS011;11828;51.508;18.118;2024-03-02T12:04:47;33.35;;;20.30;;
23310;SDS011;11828;51.508;18.118;2024-03-02T12:07:18;30.15;;;19.15;;
23310;SDS011;11828;51.508;18.118;2024-03-02T12:10:01;27.63;;;17.98;;
23310;SDS011;11828;51.508;18.118;2024-03-02T12:12:28;30.20;;;20.05;;
23310;SDS011;11828;51.508;18.118;2024-03-02T12:14:55;24.95;;;17.40;;
23310;SDS011;11828;51.508;18.118;2024-03-02T12:17:22;27.20;;;17.85;;
23310;SDS011;11828;51.508;18.118;2024-03-02T12:19:48;27.25;;;17.40;;
23310;SDS011;11828;51.508;18.118;2024-03-02T12:22:15;25.58;;;17.33;;
23310;SDS011;11828;51.508;18.118;2024-03-02T12:24:41;23.48;;;16.25;;
23310;SDS011;11828;51.508;18.118;2024-03-02T12:27:10;26.50;;;17.02;;
23310;SDS011;11828;51.508;18.118;2024-03-02T12:29:39;26.23;;;16.48;;
23310;SDS011;11828;51.508;18.118;2024-03-02T12:32:06;30.70;;;18.85;;
23310;SDS011;11828;51.508;18.118;2024-03-02T12:34:33;26.65;;;17.02;;
23310;SDS011;11828;51.508;18.118;2024-03-02T12:37:00;27.98;;;18.38;;
23310;SDS011;11828;51.508;18.118;2024-03-02T12:39:27;24.83;;;17.13;;
23310;SDS011;11828;51.508;18.118;2024-03-02T12:41:53;27.92;;;19.30;;
23310;SDS011;11828;51.508;18.118;2024-03-02T12:44:23;26.20;;;18.20;;
23310;SDS011;11828;51.508;18.118;2024-03-02T12:46:50;28.67;;;18.48;;
23310;SDS011;11828;51.508;18.118;2024-03-02T12:49:21;26.60;;;17.85;;
23310;SDS011;11828;51.508;18.118;2024-03-02T12:51:47;25.65;;;17.42;;
23310;SDS011;11828;51.508;18.118;2024-03-02T12:54:17;25.42;;;17.42;;
23310;SDS011;11828;51.508;18.118;2024-03-02T12:56:44;29.17;;;19.77;;
23310;SDS011;11828;51.508;18.118;2024-03-02T12:59:21;33.70;;;19.05;;
23310;SDS011;11828;51.508;18.118;2024-03-02T13:01:55;28.25;;;16.75;;
23310;SDS011;11828;51.508;18.118;2024-03-02T13:04:27;33.42;;;19.00;;
23310;SDS011;11828;51.508;18.118;2024-03-02T13:06:55;28.25;;;17.63;;
23310;SDS011;11828;51.508;18.118;2024-03-02T13:09:23;26.08;;;15.57;;
23310;SDS011;11828;51.508;18.118;2024-03-02T13:11:50;25.85;;;15.55;;
23310;SDS011;11828;51.508;18.118;2024-03-02T13:14:17;25.02;;;16.58;;
23310;SDS011;11828;51.508;18.118;2024-03-02T13:16:44;28.38;;;16.33;;
23310;SDS011;11828;51.508;18.118;2024-03-02T13:19:12;25.75;;;17.10;;
23310;SDS011;11828;51.508;18.118;2024-03-02T13:21:39;26.02;;;17.77;;
23310;SDS011;11828;51.508;18.118;2024-03-02T13:24:05;28.58;;;18.25;;
23310;SDS011;11828;51.508;18.118;2024-03-02T13:26:33;27.77;;;17.38;;
23310;SDS011;11828;51.508;18.118;2024-03-02T13:29:00;26.73;;;16.33;;
23310;SDS011;11828;51.508;18.118;2024-03-02T13:31:26;25.67;;;17.23;;
23310;SDS011;11828;51.508;18.118;2024-03-02T13:33:53;27.95;;;17.48;;
23310;SDS011;11828;51.508;18.118;2024-03-02T13:36:20;38.03;;;18.98;;
23310;SDS011;11828;51.508;18.118;2024-03-02T13:38:46;33.60;;;19.58;;
23310;SDS011;11828;51.508;18.118;2024-03-02T13:41:13;31.25;;;19.10;;
23310;SDS011;11828;51.508;18.118;2024-03-02T13:43:39;34.30;;;19.60;;
23310;SDS011;11828;51.508;18.118;2024-03-02T13:46:05;32.53;;;19.23;;
23310;SDS011;11828;51.508;18.118;2024-03-02T13:48:33;39.00;;;22.05;;
23310;SDS011;11828;51.508;18.118;2024-03-02T13:50:59;39.25;;;23.33;;
23310;SDS011;11828;51.508;18.118;2024-03-02T13:53:26;34.05;;;21.23;;
23310;SDS011;11828;51.508;18.118;2024-03-02T13:55:53;42.03;;;22.58;;
23310;SDS011;11828;51.508;18.118;2024-03-02T13:58:21;38.92;;;22.23;;
23310;SDS011;11828;51.508;18.118;2024-03-02T14:00:47;34.88;;;22.08;;
23310;SDS011;11828;51.508;18.118;2024-03-02T14:03:14;40.88;;;22.00;;
23310;SDS011;11828;51.508;18.118;2024-03-02T14:05:41;42.55;;;21.77;;
23310;SDS011;11828;51.508;18.118;2024-03-02T14:08:08;39.58;;;21.70;;
23310;SDS011;11828;51.508;18.118;2024-03-02T14:10:35;32.67;;;19.42;;
23310;SDS011;11828;51.508;18.118;2024-03-02T14:13:01;31.00;;;18.23;;
23310;SDS011;11828;51.508;18.118;2024-03-02T14:15:28;54.65;;;22.35;;
23310;SDS011;11828;51.508;18.118;2024-03-02T14:17:55;39.95;;;19.58;;
23310;SDS011;11828;51.508;18.118;2024-03-02T14:20:22;31.02;;;18.80;;
23310;SDS011;11828;51.508;18.118;2024-03-02T14:22:49;32.15;;;19.40;;
23310;SDS011;11828;51.508;18.118;2024-03-02T14:25:15;35.17;;;20.20;;
23310;SDS011;11828;51.508;18.118;2024-03-02T14:27:43;43.08;;;20.92;;
23310;SDS011;11828;51.508;18.118;2024-03-02T14:30:09;32.42;;;18.85;;